Time;durP1;ratioP1;P1;durP2;ratioP2;P2;SDS_P1;SDS_P2;PMS_P1;PMS_P2;Temp;Humidity;BMP_temperature;BMP_pressure;BME280_temperature;BME280_humidity;BME280_pressure;Samples;Min_cycle;Max_cycle;Signal;HPM_P1;HPM_P2
2022/01/19 00:01:01;;;;;;;9.47;5.20;;;2.80;99.90;;;;;;4977969;28;20193;-74
2022/01/19 00:03:27;;;;;;;10.77;5.30;;;2.80;99.90;;;;;;4975459;28;20279;-72
2022/01/19 00:05:53;;;;;;;8.73;4.60;;;2.60;99.90;;;;;;4974547;28;20625;-76
2022/01/19 00:08:21;;;;;;;10.90;4.93;;;2.70;99.90;;;;;;4977777;28;20180;-74
2022/01/19 00:10:49;;;;;;;11.67;5.27;;;2.60;99.90;;;;;;4978417;28;20638;-73
2022/01/19 00:13:15;;;;;;;8.33;5.00;;;2.60;99.90;;;;;;4976335;28;20207;-72
2022/01/19 00:15:41;;;;;;;10.63;4.50;;;2.50;99.90;;;;;;4975731;28;20283;-74
2022/01/19 00:18:07;;;;;;;12.60;5.10;;;2.30;99.90;;;;;;4960438;28;20180;-74
2022/01/19 00:20:34;;;;;;;11.07;4.70;;;2.20;99.90;;;;;;4975294;28;20180;-72
2022/01/19 00:23:02;;;;;;;9.50;4.97;;;2.10;99.90;;;;;;4960032;28;20185;-74
2022/01/19 00:25:27;;;;;;;10.63;4.90;;;2.00;99.90;;;;;;4974413;28;20181;-72
2022/01/19 00:27:53;;;;;;;8.37;4.70;;;1.90;99.90;;;;;;4976891;28;20220;-71
2022/01/19 00:30:19;;;;;;;12.23;7.00;;;1.80;99.90;;;;;;4975170;28;20660;-73
2022/01/19 00:32:45;;;;;;;10.33;4.90;;;1.70;99.90;;;;;;4974596;28;20191;-72
2022/01/19 00:35:11;;;;;;;9.70;4.73;;;1.60;99.90;;;;;;4974535;28;20212;-73
2022/01/19 00:37:39;;;;;;;9.33;5.03;;;1.50;99.90;;;;;;4977976;28;20723;-72
2022/01/19 00:40:07;;;;;;;10.40;6.00;;;1.50;99.90;;;;;;4977183;28;20216;-72
2022/01/19 00:42:32;;;;;;;14.03;6.20;;;1.50;99.90;;;;;;4976502;28;20181;-73
2022/01/19 00:44:58;;;;;;;7.67;5.23;;;1.40;99.90;;;;;;4974328;28;20204;-72
2022/01/19 00:47:24;;;;;;;11.63;5.40;;;1.30;99.90;;;;;;4974448;28;20629;-72
2022/01/19 00:49:50;;;;;;;10.07;5.03;;;1.20;99.90;;;;;;4979755;28;20556;-73
2022/01/19 00:52:16;;;;;;;9.70;5.00;;;1.10;99.90;;;;;;4975190;28;20242;-73
2022/01/19 00:54:42;;;;;;;7.03;4.63;;;1.10;99.90;;;;;;4976652;28;20204;-74
2022/01/19 00:57:09;;;;;;;7.77;4.53;;;1.10;99.90;;;;;;4974455;28;20226;-71
2022/01/19 00:59:34;;;;;;;9.57;5.13;;;1.10;99.90;;;;;;4976551;28;20307;-73
2022/01/19 01:02:01;;;;;;;8.77;5.00;;;1.10;99.90;;;;;;4974520;28;20287;-73
2022/01/19 01:04:27;;;;;;;8.50;4.57;;;1.10;99.90;;;;;;4973345;28;20224;-72
2022/01/19 01:06:53;;;;;;;11.07;6.00;;;1.00;99.90;;;;;;4975736;28;20287;-71
2022/01/19 01:09:19;;;;;;;10.17;5.30;;;1.00;99.90;;;;;;4977361;28;20185;-74
2022/01/19 01:12:00;;;;;;;10.60;5.53;;;0.80;99.90;;;;;;4975644;28;20263;-74
2022/01/19 01:18:17;;;;;;;12.33;5.10;;;0.80;99.90;;;;;;4975033;28;20195;-73
2022/01/19 01:19:59;;;;;;;12.10;5.43;;;0.70;99.90;;;;;;4971939;28;20216;-73
2022/01/19 01:22:24;;;;;;;8.77;5.20;;;0.70;99.90;;;;;;4974527;28;20195;-72
2022/01/19 01:24:50;;;;;;;11.03;5.03;;;0.60;99.90;;;;;;4973366;28;20204;-72
2022/01/19 01:27:16;;;;;;;8.80;4.23;;;0.70;99.90;;;;;;4974892;28;20533;-75
2022/01/19 01:29:41;;;;;;;8.00;4.53;;;0.60;99.90;;;;;;4975551;28;20188;-73
2022/01/19 01:32:08;;;;;;;12.17;5.17;;;0.60;99.90;;;;;;4972624;28;20255;-72
2022/01/19 01:34:34;;;;;;;8.90;4.63;;;0.50;99.90;;;;;;4958162;28;20748;-74
2022/01/19 01:37:00;;;;;;;9.53;4.73;;;0.50;99.90;;;;;;4977318;28;20185;-74
2022/01/19 01:39:26;;;;;;;9.47;5.03;;;0.40;99.90;;;;;;4975215;28;20209;-74
2022/01/19 01:41:51;;;;;;;12.80;5.40;;;0.50;99.90;;;;;;4974557;28;20663;-72
2022/01/19 01:44:17;;;;;;;10.83;5.40;;;0.50;99.90;;;;;;4954690;28;20208;-73
2022/01/19 01:46:54;;;;;;;9.77;5.30;;;0.50;99.90;;;;;;4977476;28;20191;-73
2022/01/19 01:49:39;;;;;;;8.37;4.50;;;0.50;99.90;;;;;;4962982;28;20279;-73
2022/01/19 01:54:49;;;;;;;9.90;4.73;;;0.30;99.90;;;;;;4973834;28;20751;-75
2022/01/19 01:57:15;;;;;;;8.97;4.70;;;0.20;99.90;;;;;;4974543;28;20192;-72
2022/01/19 01:59:41;;;;;;;10.47;4.27;;;0.20;99.90;;;;;;4974845;28;21180;-73
2022/01/19 02:02:06;;;;;;;10.47;4.30;;;0.10;99.90;;;;;;4975028;28;20176;-72
2022/01/19 02:04:34;;;;;;;8.73;4.83;;;0.10;99.90;;;;;;4974295;28;20228;-72
2022/01/19 02:09:48;;;;;;;7.77;4.23;;;0.10;99.90;;;;;;4975943;28;20184;-72
2022/01/19 02:23:20;;;;;;;8.97;4.53;;;-0.20;99.90;;;;;;4977325;28;20215;-73
2022/01/19 02:25:55;;;;;;;7.73;4.50;;;-0.20;99.90;;;;;;4969538;28;20181;-74
2022/01/19 02:36:50;;;;;;;8.23;4.10;;;-0.30;99.90;;;;;;4979637;28;20188;-72
2022/01/19 02:42:04;;;;;;;9.43;4.70;;;-0.20;99.90;;;;;;4976974;28;20600;-74
2022/01/19 02:49:44;;;;;;;9.27;4.60;;;-0.20;99.90;;;;;;4980479;28;20275;-72
2022/01/19 02:52:10;;;;;;;7.00;4.27;;;-0.20;99.90;;;;;;4976832;28;20204;-74
2022/01/19 02:54:36;;;;;;;8.87;4.47;;;-0.20;99.90;;;;;;4977499;28;20216;-73
2022/01/19 02:57:02;;;;;;;9.33;4.93;;;-0.20;99.90;;;;;;4974486;28;20184;-74
2022/01/19 03:10:13;;;;;;;9.97;4.37;;;-0.30;99.90;;;;;;4977582;28;20195;-72
2022/01/19 03:12:38;;;;;;;7.70;4.27;;;-0.30;99.90;;;;;;4979927;28;20189;-72
2022/01/19 03:15:07;;;;;;;9.63;5.07;;;-0.30;99.90;;;;;;4977191;28;20235;-72
2022/01/19 03:17:33;;;;;;;10.00;4.90;;;-0.30;99.90;;;;;;4978355;28;20984;-74
2022/01/19 03:19:58;;;;;;;12.30;5.53;;;-0.40;99.90;;;;;;4980563;28;20222;-72
2022/01/19 03:22:31;;;;;;;7.23;4.30;;;-0.40;99.90;;;;;;4977827;28;20957;-72
2022/01/19 03:24:56;;;;;;;8.67;4.33;;;-0.40;99.90;;;;;;4977739;28;20613;-74
2022/01/19 03:27:22;;;;;;;9.13;4.53;;;-0.40;99.90;;;;;;4978190;28;20243;-74
2022/01/19 03:29:48;;;;;;;8.03;4.70;;;-0.40;99.90;;;;;;4976914;28;20669;-75
2022/01/19 03:32:13;;;;;;;8.87;4.13;;;-0.40;99.90;;;;;;4944669;28;20192;-72
2022/01/19 03:34:40;;;;;;;11.53;5.20;;;-0.50;99.90;;;;;;4975615;28;20271;-72
2022/01/19 03:37:06;;;;;;;9.77;4.80;;;-0.50;99.90;;;;;;4979455;28;20279;-75
2022/01/19 03:39:32;;;;;;;10.47;4.97;;;-0.50;99.90;;;;;;4977432;28;20291;-71
2022/01/19 03:41:58;;;;;;;11.57;5.60;;;-0.40;99.90;;;;;;4958505;28;20257;-73
2022/01/19 03:44:24;;;;;;;8.47;4.87;;;-0.30;99.90;;;;;;4977935;28;20239;-75
2022/01/19 03:47:01;;;;;;;10.33;5.30;;;-0.30;99.90;;;;;;4976134;28;20188;-74
2022/01/19 03:49:32;;;;;;;10.47;4.80;;;-0.30;99.90;;;;;;4976142;28;20287;-74
2022/01/19 03:52:01;;;;;;;8.33;4.63;;;-0.40;99.90;;;;;;4977616;28;20603;-75
2022/01/19 03:54:29;;;;;;;12.33;5.87;;;-0.40;99.90;;;;;;4973500;28;20204;-73
2022/01/19 03:56:55;;;;;;;9.73;4.47;;;-0.30;99.90;;;;;;4974728;28;20191;-72
2022/01/19 03:59:21;;;;;;;12.77;4.43;;;-0.40;99.90;;;;;;4977604;28;20211;-74
2022/01/19 04:01:47;;;;;;;10.93;4.97;;;-0.40;99.90;;;;;;4977185;28;20199;-72
2022/01/19 04:04:31;;;;;;;8.03;4.40;;;-0.50;99.90;;;;;;4960142;28;20586;-73
2022/01/19 04:09:34;;;;;;;9.43;4.50;;;-0.60;99.90;;;;;;4975129;28;20775;-73
2022/01/19 04:11:59;;;;;;;7.80;4.23;;;-0.60;99.90;;;;;;4975739;28;20199;-72
2022/01/19 04:14:26;;;;;;;10.33;5.33;;;-0.50;99.90;;;;;;4977269;28;20204;-72
2022/01/19 04:16:57;;;;;;;7.93;4.73;;;-0.60;99.90;;;;;;4976245;28;20199;-75
2022/01/19 04:21:54;;;;;;;10.20;4.73;;;-0.60;99.90;;;;;;4979230;28;20653;-73
2022/01/19 04:24:20;;;;;;;8.30;4.90;;;-0.70;99.90;;;;;;4974032;28;20200;-73
2022/01/19 04:26:50;;;;;;;10.93;5.33;;;-0.80;99.90;;;;;;4973760;28;20645;-73
2022/01/19 04:29:15;;;;;;;9.93;5.17;;;-0.80;99.90;;;;;;4974861;28;20561;-74
2022/01/19 04:31:41;;;;;;;6.47;4.80;;;-0.90;99.90;;;;;;4976669;28;20196;-75
2022/01/19 04:34:08;;;;;;;10.37;5.17;;;-0.80;99.90;;;;;;4971737;28;20286;-73
2022/01/19 04:36:57;;;;;;;12.67;4.83;;;-0.90;99.90;;;;;;4976035;28;20185;-74
2022/01/19 04:39:27;;;;;;;12.97;4.50;;;-0.90;99.90;;;;;;4973311;28;20197;-73
2022/01/19 05:03:20;;;;;;;12.43;4.83;;;-1.20;99.90;;;;;;4973844;28;20319;-73
2022/01/19 05:05:53;;;;;;;11.40;5.33;;;-1.20;99.90;;;;;;4956103;28;20176;-76
2022/01/19 05:13:52;;;;;;;9.07;4.97;;;-1.40;99.90;;;;;;4973175;28;20307;-74
2022/01/19 05:16:22;;;;;;;10.60;5.47;;;-1.40;99.90;;;;;;4977710;28;20184;-74
2022/01/19 05:18:49;;;;;;;10.93;5.83;;;-1.50;99.90;;;;;;4968800;28;20295;-74
2022/01/19 05:21:15;;;;;;;10.20;5.33;;;-1.40;99.90;;;;;;4974687;28;20271;-74
2022/01/19 05:23:41;;;;;;;9.63;5.17;;;-1.40;99.90;;;;;;4975872;28;20205;-74
2022/01/19 05:26:06;;;;;;;11.07;5.77;;;-1.50;99.90;;;;;;4974346;28;20579;-74
2022/01/19 05:28:32;;;;;;;8.03;5.20;;;-1.50;99.90;;;;;;4970774;28;20192;-74
2022/01/19 05:30:58;;;;;;;13.53;6.50;;;-1.50;99.90;;;;;;4972687;28;20185;-74
2022/01/19 05:33:23;;;;;;;12.47;6.30;;;-1.50;99.90;;;;;;4975917;28;20219;-74
2022/01/19 05:35:49;;;;;;;12.53;6.93;;;-1.40;99.90;;;;;;4980295;28;20188;-74
2022/01/19 05:38:14;;;;;;;12.50;5.73;;;-1.50;99.90;;;;;;4969445;28;20574;-74
2022/01/19 05:40:40;;;;;;;9.00;5.63;;;-1.40;99.90;;;;;;4974362;28;20239;-75
2022/01/19 05:43:05;;;;;;;12.30;6.00;;;-1.40;99.90;;;;;;4956417;28;20184;-76
2022/01/19 05:45:31;;;;;;;13.57;5.93;;;-1.40;99.90;;;;;;4973122;28;20220;-74
2022/01/19 05:47:57;;;;;;;9.37;6.07;;;-1.40;99.90;;;;;;4976047;28;20316;-74
2022/01/19 05:50:24;;;;;;;13.43;6.77;;;-1.40;99.90;;;;;;4972844;28;20208;-74
2022/01/19 05:52:50;;;;;;;12.33;5.97;;;-1.30;99.90;;;;;;4972390;28;20522;-73
2022/01/19 05:55:16;;;;;;;17.90;7.50;;;-1.30;99.90;;;;;;4975422;28;20195;-74
2022/01/19 05:57:41;;;;;;;11.43;6.80;;;-1.30;99.90;;;;;;4973494;28;20193;-75
2022/01/19 06:00:08;;;;;;;15.20;6.33;;;-1.30;99.90;;;;;;4979417;28;20225;-75
2022/01/19 06:02:34;;;;;;;12.97;6.37;;;-1.30;99.90;;;;;;4973628;28;20184;-74
2022/01/19 06:05:00;;;;;;;15.80;6.67;;;-1.40;99.90;;;;;;4967849;28;20207;-74
2022/01/19 06:07:29;;;;;;;11.77;5.90;;;-1.40;99.90;;;;;;4978577;28;20173;-74
2022/01/19 06:10:06;;;;;;;12.43;6.07;;;-1.50;99.90;;;;;;4976632;28;20554;-75
2022/01/19 06:12:32;;;;;;;10.67;6.07;;;-1.50;99.90;;;;;;4973173;28;20172;-74
2022/01/19 06:14:59;;;;;;;9.70;5.70;;;-1.50;99.90;;;;;;4956650;28;20282;-76
2022/01/19 06:17:25;;;;;;;11.80;5.90;;;-1.50;99.90;;;;;;4974943;28;20184;-74
2022/01/19 06:19:51;;;;;;;11.73;7.03;;;-1.50;99.90;;;;;;4971392;28;20205;-74
2022/01/19 06:22:17;;;;;;;14.53;5.57;;;-1.50;99.90;;;;;;4974580;28;20235;-74
2022/01/19 06:24:43;;;;;;;10.57;5.67;;;-1.30;99.90;;;;;;4975899;28;20199;-74
2022/01/19 06:27:09;;;;;;;12.93;6.17;;;-1.40;99.90;;;;;;4970319;28;20238;-74
2022/01/19 06:29:35;;;;;;;13.53;6.37;;;-1.40;99.90;;;;;;4965615;28;20192;-75
2022/01/19 06:32:00;;;;;;;12.23;6.70;;;-1.50;99.90;;;;;;4974895;28;20283;-74
2022/01/19 06:34:26;;;;;;;11.13;5.40;;;-1.50;99.90;;;;;;4978013;28;20205;-74
2022/01/19 06:36:53;;;;;;;10.77;5.67;;;-1.50;99.90;;;;;;4968381;28;20192;-75
2022/01/19 06:39:19;;;;;;;12.80;6.27;;;-1.50;99.90;;;;;;4972655;28;20204;-74
2022/01/19 06:41:46;;;;;;;11.07;6.03;;;-1.60;99.90;;;;;;4975628;28;20177;-75
2022/01/19 06:44:14;;;;;;;10.53;5.40;;;-1.50;99.90;;;;;;4972119;28;20661;-74
2022/01/19 06:46:44;;;;;;;11.90;6.33;;;-1.50;99.90;;;;;;4977025;28;20268;-74
2022/01/19 06:49:10;;;;;;;13.30;6.40;;;-1.40;99.90;;;;;;4972411;28;20224;-75
2022/01/19 06:51:36;;;;;;;12.23;6.13;;;-1.40;99.90;;;;;;4978973;28;20539;-74
2022/01/19 06:54:01;;;;;;;11.33;5.57;;;-1.40;99.90;;;;;;4970535;28;20220;-75
2022/01/19 06:56:27;;;;;;;11.37;5.93;;;-1.40;99.90;;;;;;4959647;28;20292;-75
2022/01/19 06:58:53;;;;;;;13.30;5.60;;;-1.40;99.90;;;;;;4972960;28;20624;-74
2022/01/19 07:01:19;;;;;;;9.40;5.13;;;-1.40;99.90;;;;;;4974096;28;20295;-73
2022/01/19 07:03:45;;;;;;;9.90;5.83;;;-1.40;99.90;;;;;;4970650;28;20319;-74
2022/01/19 07:06:11;;;;;;;9.33;5.70;;;-1.30;99.90;;;;;;4955917;28;20181;-74
2022/01/19 07:08:40;;;;;;;10.83;5.93;;;-1.30;99.90;;;;;;4976714;28;20236;-74
2022/01/19 07:11:06;;;;;;;12.50;6.03;;;-1.10;99.90;;;;;;4973797;28;20196;-75
2022/01/19 07:13:33;;;;;;;14.73;6.20;;;-1.20;99.90;;;;;;4981427;28;20664;-74
2022/01/19 07:15:58;;;;;;;10.73;5.80;;;-1.30;99.90;;;;;;4954590;28;20228;-75
2022/01/19 07:18:24;;;;;;;12.87;6.70;;;-1.40;99.90;;;;;;4977735;28;20261;-75
2022/01/19 07:20:50;;;;;;;14.03;7.23;;;-1.40;99.90;;;;;;4977436;28;20544;-75
2022/01/19 07:23:15;;;;;;;22.10;10.47;;;-1.30;99.90;;;;;;4979074;28;20274;-74
2022/01/19 07:25:41;;;;;;;17.43;8.93;;;-1.10;99.90;;;;;;4979366;28;20189;-74
2022/01/19 07:28:10;;;;;;;16.13;7.97;;;-1.20;99.90;;;;;;4979939;28;20180;-74
2022/01/19 07:30:37;;;;;;;14.17;7.67;;;-1.30;99.90;;;;;;4971684;28;21000;-74
2022/01/19 07:33:02;;;;;;;12.20;7.73;;;-1.30;99.90;;;;;;4954953;28;20189;-73
2022/01/19 07:35:29;;;;;;;11.60;7.20;;;-1.30;99.90;;;;;;4977589;28;20199;-75
2022/01/19 07:37:54;;;;;;;11.97;6.67;;;-1.30;99.90;;;;;;4959858;28;20286;-75
2022/01/19 07:40:20;;;;;;;11.23;5.73;;;-1.10;99.90;;;;;;4969149;28;20785;-73
2022/01/19 07:42:46;;;;;;;11.10;5.53;;;-1.10;99.90;;;;;;4975762;28;20626;-74
2022/01/19 07:45:11;;;;;;;11.57;6.37;;;-0.90;99.90;;;;;;4974195;28;20213;-74
2022/01/19 07:47:37;;;;;;;10.40;6.33;;;-0.90;99.90;;;;;;4957398;28;20208;-74
2022/01/19 07:50:04;;;;;;;12.93;6.33;;;-0.90;99.90;;;;;;4970250;28;20235;-73
2022/01/19 07:52:30;;;;;;;12.30;6.33;;;-1.00;99.90;;;;;;4982290;28;20243;-74
2022/01/19 07:54:55;;;;;;;12.50;6.23;;;-0.90;99.90;;;;;;4976777;28;20212;-75
2022/01/19 07:57:21;;;;;;;10.10;6.27;;;-0.90;99.90;;;;;;4978039;28;20217;-74
2022/01/19 07:59:47;;;;;;;9.73;5.90;;;-0.90;99.90;;;;;;4977446;28;20216;-73
2022/01/19 08:02:13;;;;;;;12.20;6.53;;;-0.90;99.90;;;;;;4977170;28;20548;-74
2022/01/19 08:04:39;;;;;;;10.80;5.90;;;-0.90;99.90;;;;;;4975588;28;20204;-73
2022/01/19 08:07:05;;;;;;;12.03;6.03;;;-0.80;99.90;;;;;;4959076;28;20184;-73
2022/01/19 08:09:31;;;;;;;14.50;5.93;;;-0.80;99.90;;;;;;4958251;28;20195;-74
2022/01/19 08:11:57;;;;;;;8.87;5.27;;;-0.60;99.90;;;;;;4973216;28;20200;-75
2022/01/19 08:14:24;;;;;;;11.33;5.60;;;-0.60;99.90;;;;;;4972842;28;20216;-74
2022/01/19 08:16:51;;;;;;;10.83;5.93;;;-0.50;99.90;;;;;;4971821;28;20585;-74
2022/01/19 08:19:17;;;;;;;10.40;6.03;;;-0.50;99.90;;;;;;4969907;28;20223;-74
2022/01/19 08:21:43;;;;;;;9.17;5.30;;;-0.50;99.90;;;;;;4972342;28;20346;-74
2022/01/19 08:24:08;;;;;;;14.13;5.93;;;-0.50;99.90;;;;;;4975883;28;20211;-74
2022/01/19 08:26:34;;;;;;;10.73;5.93;;;-0.40;99.90;;;;;;4971626;28;20216;-73
2022/01/19 08:29:00;;;;;;;9.30;6.60;;;-0.40;99.90;;;;;;4976855;28;21252;-73
2022/01/19 08:31:26;;;;;;;11.87;5.60;;;-0.20;99.90;;;;;;4969862;28;20755;-73
2022/01/19 08:33:52;;;;;;;12.60;5.60;;;-0.10;99.90;;;;;;4969049;28;20216;-75
2022/01/19 08:36:17;;;;;;;12.03;6.20;;;0.00;99.90;;;;;;4974135;28;20188;-74
2022/01/19 08:38:43;;;;;;;12.30;6.53;;;0.10;99.90;;;;;;4978744;28;20721;-74
2022/01/19 08:41:10;;;;;;;16.07;10.03;;;0.20;99.90;;;;;;4974153;28;20671;-75
2022/01/19 08:43:35;;;;;;;16.63;9.33;;;0.30;99.90;;;;;;4974167;28;20205;-76
2022/01/19 08:46:01;;;;;;;18.03;9.93;;;0.50;99.90;;;;;;4974988;28;20256;-76
2022/01/19 08:48:27;;;;;;;14.13;8.67;;;0.60;99.90;;;;;;4975510;28;20184;-77
2022/01/19 08:50:54;;;;;;;19.47;9.40;;;0.80;99.90;;;;;;4971986;28;20608;-74
2022/01/19 08:53:21;;;;;;;14.50;7.27;;;0.90;99.90;;;;;;4978699;28;20216;-75
2022/01/19 08:55:47;;;;;;;14.60;7.63;;;1.00;99.90;;;;;;4976270;28;20185;-73
2022/01/19 08:58:13;;;;;;;11.40;6.80;;;1.00;99.90;;;;;;4970727;28;20203;-74
2022/01/19 09:00:44;;;;;;;10.73;6.63;;;1.10;99.90;;;;;;4973418;28;20220;-74
2022/01/19 09:03:10;;;;;;;10.17;6.70;;;1.20;99.90;;;;;;4972648;28;20243;-73
2022/01/19 09:05:36;;;;;;;11.70;6.10;;;1.30;99.90;;;;;;4970359;28;20184;-73
2022/01/19 09:08:02;;;;;;;10.07;6.53;;;1.40;99.90;;;;;;4970987;28;20684;-73
2022/01/19 09:10:28;;;;;;;9.77;6.27;;;1.50;99.90;;;;;;4973751;28;20629;-74
2022/01/19 09:12:53;;;;;;;10.07;7.23;;;1.70;99.90;;;;;;4974254;28;20183;-74
2022/01/19 09:15:19;;;;;;;11.80;6.53;;;1.60;99.90;;;;;;4974419;28;20633;-73
2022/01/19 09:17:45;;;;;;;10.33;7.33;;;1.80;99.90;;;;;;4975380;28;20677;-74
2022/01/19 09:20:13;;;;;;;14.20;8.00;;;1.90;99.90;;;;;;4974887;28;20661;-75
2022/01/19 09:22:40;;;;;;;12.43;7.73;;;1.90;99.90;;;;;;4971476;28;20646;-74
2022/01/19 09:25:08;;;;;;;14.20;8.33;;;2.00;99.90;;;;;;4956547;28;20200;-75
2022/01/19 09:27:34;;;;;;;12.67;8.57;;;2.10;99.90;;;;;;4950708;28;20185;-74
2022/01/19 09:30:00;;;;;;;16.13;9.73;;;2.20;99.90;;;;;;4973291;28;20596;-74
2022/01/19 09:32:26;;;;;;;14.73;9.97;;;2.40;99.90;;;;;;4969151;28;20197;-75
2022/01/19 09:34:56;;;;;;;14.53;9.53;;;2.50;99.90;;;;;;4957484;28;20217;-75
2022/01/19 09:37:23;;;;;;;13.07;8.47;;;2.60;99.90;;;;;;4973663;28;20230;-75
2022/01/19 09:39:49;;;;;;;11.80;8.77;;;2.80;99.90;;;;;;4972447;28;20231;-75
2022/01/19 09:42:15;;;;;;;12.73;7.80;;;2.90;99.90;;;;;;4971816;28;20188;-75
2022/01/19 09:44:41;;;;;;;11.13;7.57;;;2.90;99.90;;;;;;4975032;28;20740;-74
2022/01/19 09:47:07;;;;;;;10.60;8.10;;;3.00;99.90;;;;;;4972898;28;20263;-76
2022/01/19 09:49:33;;;;;;;9.73;7.40;;;3.20;99.90;;;;;;4953913;28;20181;-75
2022/01/19 09:51:59;;;;;;;7.50;6.33;;;3.40;99.90;;;;;;4970457;28;20273;-74
2022/01/19 09:54:27;;;;;;;5.67;5.07;;;3.70;99.90;;;;;;4971074;28;20354;-73
2022/01/19 09:56:54;;;;;;;6.33;5.30;;;3.60;99.90;;;;;;4972008;28;20184;-74
2022/01/19 09:59:20;;;;;;;6.00;4.80;;;3.60;99.90;;;;;;4971387;28;20228;-74
2022/01/19 10:01:51;;;;;;;5.20;4.70;;;3.60;99.90;;;;;;4974764;28;20609;-73
2022/01/19 10:04:18;;;;;;;5.83;4.70;;;3.60;99.90;;;;;;4970243;28;20223;-73
2022/01/19 10:06:44;;;;;;;4.20;3.80;;;3.50;99.90;;;;;;4973214;28;20242;-73
2022/01/19 10:09:10;;;;;;;5.27;3.80;;;3.50;99.90;;;;;;4955835;28;20733;-74
2022/01/19 10:17:02;;;;;;;4.70;4.10;;;3.70;99.90;;;;;;4973958;28;20588;-71
2022/01/19 10:19:38;;;;;;;4.53;3.83;;;3.70;99.90;;;;;;4970607;28;20286;-72
2022/01/19 10:22:05;;;;;;;4.80;3.80;;;3.80;99.90;;;;;;4968771;28;20219;-71
2022/01/19 10:24:54;;;;;;;4.37;3.97;;;3.80;99.90;;;;;;4970258;28;20196;-71
2022/01/19 10:27:31;;;;;;;4.50;3.53;;;3.80;99.90;;;;;;4975389;28;20255;-75
2022/01/19 10:30:13;;;;;;;4.20;3.47;;;3.90;99.90;;;;;;4970859;28;20200;-76
2022/01/19 10:32:47;;;;;;;4.27;3.17;;;4.00;99.90;;;;;;4970898;28;20200;-71
2022/01/19 10:35:22;;;;;;;3.57;3.03;;;4.10;99.90;;;;;;4968290;28;20667;-71
2022/01/19 10:38:06;;;;;;;3.77;3.40;;;4.20;99.90;;;;;;4972761;28;20234;-74
2022/01/19 10:40:34;;;;;;;4.07;3.43;;;4.30;99.90;;;;;;4972946;28;20266;-71
2022/01/19 10:43:00;;;;;;;3.27;2.97;;;4.60;99.90;;;;;;4975975;28;20195;-72
2022/01/19 10:45:31;;;;;;;3.77;2.77;;;4.70;99.90;;;;;;4970354;28;20636;-75
2022/01/19 10:47:57;;;;;;;3.87;3.30;;;4.70;99.90;;;;;;4978312;28;20188;-72
2022/01/19 10:50:33;;;;;;;3.40;2.97;;;4.70;99.90;;;;;;4975288;28;20185;-72
2022/01/19 10:53:01;;;;;;;3.63;2.97;;;4.90;99.90;;;;;;4973740;28;20566;-73
2022/01/19 10:55:30;;;;;;;3.20;2.80;;;5.00;99.90;;;;;;4973715;28;20192;-75
2022/01/19 10:57:57;;;;;;;2.93;2.63;;;4.90;99.90;;;;;;4971568;28;20280;-74
2022/01/19 11:00:34;;;;;;;3.20;2.90;;;4.90;99.90;;;;;;4971727;28;20224;-73
2022/01/19 11:03:23;;;;;;;3.50;3.20;;;4.90;99.90;;;;;;4976840;28;20674;-73
2022/01/19 11:05:54;;;;;;;3.20;2.73;;;4.90;99.90;;;;;;4974180;28;20180;-73
2022/01/19 11:08:22;;;;;;;3.37;2.70;;;4.80;99.90;;;;;;4978805;28;20243;-74
2022/01/19 11:10:50;;;;;;;2.90;2.67;;;4.70;99.90;;;;;;4978778;28;20276;-73
2022/01/19 11:13:27;;;;;;;2.80;2.60;;;4.60;99.90;;;;;;4974714;28;20493;-73
2022/01/19 11:15:57;;;;;;;7.33;4.60;;;4.60;99.90;;;;;;4966458;28;20559;-73
2022/01/19 11:18:25;;;;;;;4.37;3.40;;;4.60;99.90;;;;;;4969876;28;20186;-75
2022/01/19 11:20:53;;;;;;;3.17;2.87;;;4.60;99.90;;;;;;4964151;28;20191;-72
2022/01/19 11:23:31;;;;;;;2.83;2.57;;;4.70;99.90;;;;;;4969572;28;20563;-71
2022/01/19 11:26:14;;;;;;;2.40;2.20;;;4.70;99.90;;;;;;4957922;28;20240;-75
2022/01/19 11:28:46;;;;;;;2.50;2.27;;;4.70;99.90;;;;;;4966663;28;20263;-74
2022/01/19 11:31:24;;;;;;;2.30;2.10;;;4.90;99.90;;;;;;4979633;28;20275;-73
2022/01/19 11:33:56;;;;;;;2.70;2.50;;;4.80;99.90;;;;;;4967805;28;20265;-73
2022/01/19 11:36:31;;;;;;;2.37;2.17;;;4.80;99.90;;;;;;4964594;28;20685;-73
2022/01/19 11:39:13;;;;;;;2.30;2.10;;;4.80;99.90;;;;;;4976994;28;20270;-72
2022/01/19 11:41:54;;;;;;;2.37;2.17;;;4.70;99.90;;;;;;4972639;28;20549;-72
2022/01/19 11:44:29;;;;;;;2.80;2.50;;;4.70;99.90;;;;;;4956787;28;20347;-75
2022/01/19 11:46:58;;;;;;;2.83;2.30;;;4.70;99.90;;;;;;4976088;28;20179;-72
2022/01/19 11:49:44;;;;;;;4.17;2.40;;;4.60;99.90;;;;;;4968936;28;20177;-72
2022/01/19 11:52:10;;;;;;;2.20;2.00;;;4.60;99.90;;;;;;4973237;28;20185;-73
2022/01/19 11:54:36;;;;;;;2.33;2.13;;;4.50;99.90;;;;;;4966989;28;20209;-73
2022/01/19 11:57:06;;;;;;;3.87;2.37;;;4.40;99.90;;;;;;4972188;28;20188;-73
2022/01/19 11:59:47;;;;;;;2.00;1.80;;;4.40;99.90;;;;;;4966131;28;20625;-73
2022/01/19 12:02:24;;;;;;;3.53;2.30;;;4.30;99.90;;;;;;4972167;28;20234;-73
2022/01/19 12:04:58;;;;;;;3.07;2.40;;;4.30;99.90;;;;;;4970501;28;20311;-72
2022/01/19 12:07:48;;;;;;;3.10;2.80;;;4.30;99.90;;;;;;4976050;28;20187;-72
2022/01/19 12:10:30;;;;;;;3.00;2.80;;;4.40;99.90;;;;;;4972044;28;20652;-73
2022/01/19 12:13:28;;;;;;;3.07;2.50;;;4.40;99.90;;;;;;4975231;28;20689;-76
2022/01/19 12:16:00;;;;;;;3.40;3.10;;;4.30;99.90;;;;;;4972808;28;20707;-75
2022/01/19 12:18:43;;;;;;;4.07;3.30;;;4.30;99.90;;;;;;4971965;28;20226;-72
2022/01/19 12:21:11;;;;;;;3.53;3.23;;;4.30;99.90;;;;;;4971928;28;20195;-72
2022/01/19 12:23:39;;;;;;;4.90;3.40;;;4.30;99.90;;;;;;4974984;28;20193;-74
2022/01/19 12:26:06;;;;;;;4.93;4.00;;;4.40;99.90;;;;;;4970586;28;20649;-72
2022/01/19 12:28:50;;;;;;;5.03;3.57;;;4.30;99.90;;;;;;4973119;28;20181;-75
2022/01/19 12:31:25;;;;;;;7.00;4.43;;;4.30;99.90;;;;;;4972086;28;20207;-71
2022/01/19 12:34:03;;;;;;;4.03;3.63;;;4.30;99.90;;;;;;4969539;28;20196;-75
2022/01/19 12:36:50;;;;;;;3.93;3.37;;;4.30;99.90;;;;;;4972180;28;20187;-74
2022/01/19 12:39:24;;;;;;;3.37;3.07;;;4.30;99.90;;;;;;4979923;28;20204;-72
2022/01/19 12:41:56;;;;;;;4.13;3.47;;;4.30;99.90;;;;;;4970639;28;20184;-74
2022/01/19 12:44:42;;;;;;;3.47;3.10;;;4.20;99.90;;;;;;4955519;28;20299;-73
2022/01/19 12:47:26;;;;;;;3.83;3.30;;;4.30;99.90;;;;;;4970858;28;20669;-75
2022/01/19 12:49:58;;;;;;;3.80;3.50;;;4.20;99.90;;;;;;4974440;28;20193;-74
2022/01/19 12:52:26;;;;;;;5.20;4.00;;;4.20;99.90;;;;;;4975827;28;20176;-74
2022/01/19 12:54:54;;;;;;;4.47;4.07;;;4.20;99.90;;;;;;4975342;28;20212;-72
2022/01/19 12:57:20;;;;;;;4.27;3.87;;;4.10;99.90;;;;;;4968591;28;20228;-73
2022/01/19 12:59:49;;;;;;;4.53;4.07;;;4.10;99.90;;;;;;4974623;28;20212;-76
2022/01/19 13:02:17;;;;;;;4.00;3.60;;;4.10;99.90;;;;;;4970719;28;20200;-72
2022/01/19 13:04:46;;;;;;;5.47;4.20;;;4.10;99.90;;;;;;4975411;28;20255;-73
2022/01/19 13:07:27;;;;;;;4.80;4.10;;;4.10;99.90;;;;;;4974079;28;20551;-75
2022/01/19 13:15:40;;;;;;;6.60;4.80;;;4.00;99.90;;;;;;4972947;28;20323;-75
2022/01/19 13:18:06;;;;;;;4.97;4.47;;;4.00;99.90;;;;;;4969836;28;20184;-73
2022/01/19 13:20:32;;;;;;;7.67;5.10;;;3.90;99.90;;;;;;4966769;28;20676;-73
2022/01/19 13:22:58;;;;;;;5.37;4.87;;;4.00;99.90;;;;;;4972137;28;20189;-73
2022/01/19 13:25:26;;;;;;;5.17;4.67;;;4.00;99.90;;;;;;4971272;28;20177;-74
2022/01/19 13:27:55;;;;;;;5.40;4.40;;;3.90;99.90;;;;;;4976566;28;20274;-75
2022/01/19 13:30:23;;;;;;;5.83;4.73;;;4.00;99.90;;;;;;4972248;28;20188;-74
2022/01/19 13:32:48;;;;;;;7.30;5.13;;;3.90;99.90;;;;;;4970707;28;20185;-73
2022/01/19 13:35:15;;;;;;;5.73;4.53;;;4.00;99.90;;;;;;4968459;28;20742;-74
2022/01/19 13:37:46;;;;;;;5.60;4.93;;;4.00;99.90;;;;;;4971373;28;20189;-73
2022/01/19 13:40:29;;;;;;;4.97;4.43;;;4.00;99.90;;;;;;4971226;28;20219;-74
2022/01/19 13:42:58;;;;;;;4.90;4.37;;;4.00;99.90;;;;;;4966614;28;20302;-74
2022/01/19 13:50:46;;;;;;;5.03;4.00;;;4.00;99.90;;;;;;4972661;28;20278;-74
2022/01/19 13:53:14;;;;;;;4.53;4.03;;;3.90;99.90;;;;;;4970558;28;20794;-73
2022/01/19 13:55:40;;;;;;;4.23;3.80;;;3.90;99.90;;;;;;4969278;28;20185;-75
2022/01/19 13:58:09;;;;;;;4.83;3.83;;;3.80;99.90;;;;;;4971044;28;20686;-73
2022/01/19 14:00:35;;;;;;;4.80;3.90;;;3.90;99.90;;;;;;4969892;28;20235;-74
2022/01/19 14:03:04;;;;;;;4.03;3.50;;;3.80;99.90;;;;;;4970996;28;20192;-73
2022/01/19 14:05:40;;;;;;;4.67;3.40;;;3.80;99.90;;;;;;4969176;28;20724;-74
2022/01/19 14:08:06;;;;;;;6.50;4.53;;;3.80;99.90;;;;;;4969783;28;20183;-72
2022/01/19 14:10:59;;;;;;;4.70;4.03;;;3.80;99.90;;;;;;4972338;28;20180;-73
2022/01/19 14:13:34;;;;;;;4.30;3.67;;;3.80;99.90;;;;;;4966371;28;20276;-73
2022/01/19 14:16:31;;;;;;;6.07;4.50;;;3.80;99.90;;;;;;4977013;28;20188;-73
2022/01/19 14:19:14;;;;;;;4.67;4.10;;;3.80;99.90;;;;;;4973498;28;20208;-74
2022/01/19 14:22:06;;;;;;;5.03;4.17;;;3.80;99.90;;;;;;4980026;28;20244;-72
2022/01/19 14:24:40;;;;;;;4.67;4.27;;;3.80;99.90;;;;;;4976539;28;20223;-75
2022/01/19 14:27:09;;;;;;;4.03;3.63;;;3.80;99.90;;;;;;4976332;28;20723;-76
2022/01/19 14:29:35;;;;;;;4.03;3.63;;;3.70;99.90;;;;;;4973145;28;20184;-73
2022/01/19 14:32:01;;;;;;;4.33;3.80;;;3.70;99.90;;;;;;4977124;28;20204;-74